Time;durP1;ratioP1;P1;durP2;ratioP2;P2;SDS_P1;SDS_P2;PMS_P1;PMS_P2;Temp;Humidity;BMP_temperature;BMP_pressure;BME280_temperature;BME280_humidity;BME280_pressure;Samples;Min_cycle;Max_cycle;Signal;HPM_P1;HPM_P2
2022/03/26 00:00:10;;;;;;;47.67;22.33;;;11.20;99.90;;;;;;5040231;28;20172;-77
2022/03/26 00:02:36;;;;;;;43.13;21.98;;;11.30;99.90;;;;;;5035536;28;20164;-77
2022/03/26 00:05:03;;;;;;;44.83;21.13;;;11.30;99.90;;;;;;5038692;28;20714;-84
2022/03/26 00:07:28;;;;;;;47.67;22.00;;;11.20;99.90;;;;;;5039457;28;20184;-78
2022/03/26 00:09:54;;;;;;;47.15;20.48;;;11.50;99.90;;;;;;5034915;28;20168;-85
2022/03/26 00:12:20;;;;;;;38.65;20.75;;;11.40;99.90;;;;;;5037612;28;20172;-84
2022/03/26 00:14:46;;;;;;;47.60;21.60;;;11.10;99.90;;;;;;5045141;28;20187;-84
2022/03/26 00:17:12;;;;;;;41.20;20.58;;;11.10;99.90;;;;;;5041032;28;20180;-81
2022/03/26 00:19:37;;;;;;;57.63;21.15;;;11.10;99.90;;;;;;5045507;28;20191;-88
2022/03/26 00:22:03;;;;;;;53.45;21.98;;;10.90;99.90;;;;;;5045103;28;20172;-79
2022/03/26 00:24:29;;;;;;;38.38;21.23;;;11.10;99.90;;;;;;5046565;28;20191;-80
2022/03/26 00:26:55;;;;;;;51.45;20.35;;;11.10;99.90;;;;;;5027658;28;20200;-78
2022/03/26 00:29:21;;;;;;;54.88;21.15;;;11.00;99.90;;;;;;5046309;28;20171;-77
2022/03/26 00:31:46;;;;;;;41.25;20.52;;;11.10;99.90;;;;;;5044767;28;20184;-82
2022/03/26 00:34:12;;;;;;;40.28;20.25;;;10.90;99.90;;;;;;5047725;28;20214;-83
2022/03/26 00:36:39;;;;;;;42.72;21.45;;;10.80;99.90;;;;;;5045616;28;20192;-82
2022/03/26 00:39:07;;;;;;;50.22;20.90;;;10.90;99.90;;;;;;5046293;28;20521;-85
2022/03/26 00:41:33;;;;;;;39.95;19.10;;;10.80;99.90;;;;;;5047903;28;20179;-87
2022/03/26 00:44:00;;;;;;;39.35;19.75;;;10.70;99.90;;;;;;5047946;28;20164;-83
2022/03/26 00:46:25;;;;;;;40.50;21.58;;;10.80;99.90;;;;;;5032430;28;20212;-86
2022/03/26 00:48:51;;;;;;;44.35;20.17;;;10.90;99.90;;;;;;5046489;28;20629;-82
2022/03/26 00:51:17;;;;;;;36.92;19.75;;;10.80;99.90;;;;;;5048935;28;20247;-82
2022/03/26 00:53:44;;;;;;;39.65;19.33;;;10.70;99.90;;;;;;5028835;28;20160;-85
2022/03/26 00:56:11;;;;;;;37.30;18.65;;;10.70;99.90;;;;;;5045939;28;20233;-80
2022/03/26 00:58:38;;;;;;;39.72;19.40;;;10.80;99.90;;;;;;5046928;28;20180;-81
2022/03/26 01:01:06;;;;;;;42.22;19.73;;;10.70;99.90;;;;;;5012582;28;20210;-83
2022/03/26 01:03:33;;;;;;;38.38;20.38;;;10.70;99.90;;;;;;5044169;28;20171;-84
2022/03/26 01:05:58;;;;;;;44.50;19.27;;;10.70;99.90;;;;;;5023657;28;20723;-81
2022/03/26 01:08:24;;;;;;;40.72;20.98;;;10.60;99.90;;;;;;5043014;28;20220;-79
2022/03/26 01:10:50;;;;;;;35.22;19.65;;;10.70;99.90;;;;;;5039828;28;20687;-82
2022/03/26 01:13:16;;;;;;;46.03;20.48;;;10.60;99.90;;;;;;5041615;28;20179;-87
2022/03/26 01:15:43;;;;;;;47.10;20.42;;;10.70;99.90;;;;;;5045503;28;20521;-84
2022/03/26 01:18:09;;;;;;;44.78;21.13;;;10.60;99.90;;;;;;5045603;28;20195;-86
2022/03/26 01:20:35;;;;;;;42.17;20.63;;;10.70;99.90;;;;;;5037821;28;20164;-86
2022/03/26 01:23:02;;;;;;;46.45;20.52;;;10.60;99.90;;;;;;5028982;28;20604;-77
2022/03/26 01:25:27;;;;;;;37.58;19.27;;;10.60;99.90;;;;;;5026567;28;20570;-78
2022/03/26 01:27:53;;;;;;;42.30;19.70;;;10.50;99.90;;;;;;5024759;28;20195;-83
2022/03/26 01:30:19;;;;;;;41.63;20.08;;;10.40;99.90;;;;;;5044069;28;20240;-88
2022/03/26 01:32:44;;;;;;;46.45;19.42;;;10.60;99.90;;;;;;5022909;28;20256;-85
2022/03/26 01:35:12;;;;;;;44.88;19.83;;;10.70;99.90;;;;;;5041190;28;20176;-84
2022/03/26 01:37:37;;;;;;;34.67;18.92;;;10.70;99.90;;;;;;5042744;28;20191;-88
2022/03/26 01:40:05;;;;;;;39.53;19.80;;;10.60;99.90;;;;;;5042768;28;20187;-77
2022/03/26 01:42:31;;;;;;;47.78;20.55;;;10.50;99.90;;;;;;5043724;28;20184;-85
2022/03/26 01:44:57;;;;;;;45.88;19.90;;;10.40;99.90;;;;;;5043686;28;20291;-86
2022/03/26 01:47:23;;;;;;;37.63;18.80;;;10.40;99.90;;;;;;5029257;28;20191;-83
2022/03/26 01:49:51;;;;;;;39.08;19.27;;;10.30;99.90;;;;;;5048415;28;20172;-85
2022/03/26 01:52:17;;;;;;;39.40;19.77;;;10.30;99.90;;;;;;5045130;28;20162;-85
2022/03/26 01:54:43;;;;;;;40.08;21.02;;;10.30;99.90;;;;;;5045792;28;20247;-79
2022/03/26 01:57:11;;;;;;;40.17;21.38;;;10.50;99.90;;;;;;5045899;28;20207;-80
2022/03/26 01:59:40;;;;;;;46.50;20.63;;;10.40;99.90;;;;;;5011501;28;20174;-87
2022/03/26 02:02:07;;;;;;;41.17;19.98;;;10.40;99.90;;;;;;5041854;28;20543;-87
2022/03/26 02:04:36;;;;;;;34.22;19.80;;;10.50;99.90;;;;;;5047764;28;20172;-82
2022/03/26 02:07:04;;;;;;;38.60;19.90;;;10.40;99.90;;;;;;5031625;28;20211;-78
2022/03/26 02:09:36;;;;;;;36.92;19.17;;;10.30;99.90;;;;;;5017999;28;20168;-83
2022/03/26 02:12:24;;;;;;;41.97;20.30;;;10.40;99.90;;;;;;5046848;28;20227;-85
2022/03/26 02:14:50;;;;;;;41.70;19.45;;;10.40;99.90;;;;;;5040880;28;20187;-87
2022/03/26 02:17:19;;;;;;;33.60;19.55;;;10.40;99.90;;;;;;5041445;28;20180;-86
2022/03/26 02:19:52;;;;;;;37.53;18.45;;;10.40;99.90;;;;;;5049871;28;20171;-83
2022/03/26 02:22:18;;;;;;;45.58;19.33;;;10.40;99.90;;;;;;5045142;28;20210;-85
2022/03/26 02:24:45;;;;;;;40.88;20.60;;;10.20;99.90;;;;;;5043081;28;20172;-82
2022/03/26 02:27:10;;;;;;;44.65;20.42;;;10.20;99.90;;;;;;5041494;28;20203;-84
2022/03/26 02:29:36;;;;;;;42.33;19.45;;;10.20;99.90;;;;;;5042903;28;20592;-86
2022/03/26 02:32:02;;;;;;;40.25;19.67;;;10.40;99.90;;;;;;5043473;28;20279;-85
2022/03/26 02:34:27;;;;;;;36.15;19.35;;;10.20;99.90;;;;;;5039627;28;20168;-79
2022/03/26 02:36:57;;;;;;;42.92;19.30;;;10.30;99.90;;;;;;5039696;28;20239;-86
2022/03/26 02:39:23;;;;;;;51.28;19.45;;;10.20;99.90;;;;;;5037979;28;20252;-78
2022/03/26 02:41:48;;;;;;;38.35;18.33;;;10.10;99.90;;;;;;5038569;28;20191;-82
2022/03/26 02:44:14;;;;;;;44.40;21.75;;;10.00;99.90;;;;;;5039355;28;20217;-87
2022/03/26 02:46:40;;;;;;;39.42;19.63;;;10.10;99.90;;;;;;5039355;28;20212;-84
2022/03/26 02:49:05;;;;;;;36.88;19.25;;;9.90;99.90;;;;;;5040924;28;20171;-86
2022/03/26 02:51:31;;;;;;;46.20;20.23;;;9.90;99.90;;;;;;5047093;28;20222;-82
2022/03/26 02:53:56;;;;;;;34.95;19.00;;;9.90;99.90;;;;;;5050531;28;20703;-81
2022/03/26 02:56:22;;;;;;;39.38;18.05;;;10.00;99.90;;;;;;5053763;28;20179;-77
2022/03/26 02:58:49;;;;;;;39.15;20.15;;;10.00;99.90;;;;;;5049762;28;20223;-86
2022/03/26 03:01:15;;;;;;;30.75;18.27;;;10.10;99.90;;;;;;5042208;28;20159;-86
2022/03/26 03:03:41;;;;;;;31.75;18.98;;;10.10;99.90;;;;;;5035249;28;20170;-78
2022/03/26 03:06:06;;;;;;;40.03;19.60;;;10.10;99.90;;;;;;5049126;28;20211;-79
2022/03/26 03:08:33;;;;;;;38.67;19.55;;;10.10;99.90;;;;;;5030018;28;20203;-84
2022/03/26 03:10:59;;;;;;;43.13;19.88;;;9.90;99.90;;;;;;5048679;28;20179;-83
2022/03/26 03:13:25;;;;;;;47.25;19.20;;;9.90;99.90;;;;;;5042010;28;20176;-78
2022/03/26 03:15:52;;;;;;;37.90;20.33;;;10.10;99.90;;;;;;5046745;28;20167;-78
2022/03/26 03:18:18;;;;;;;37.58;19.75;;;10.00;99.90;;;;;;5049152;28;20180;-81
2022/03/26 03:20:45;;;;;;;44.88;19.60;;;10.00;99.90;;;;;;5048901;28;20194;-86
2022/03/26 03:23:11;;;;;;;37.00;20.75;;;9.90;99.90;;;;;;5049998;28;20171;-81
2022/03/26 03:25:38;;;;;;;41.42;20.92;;;9.80;99.90;;;;;;5048300;28;20226;-80
2022/03/26 03:28:04;;;;;;;33.42;19.30;;;9.80;99.90;;;;;;5047921;28;20211;-86
2022/03/26 03:30:30;;;;;;;39.65;20.25;;;9.90;99.90;;;;;;5015701;28;20545;-86
2022/03/26 03:32:56;;;;;;;36.38;19.80;;;9.80;99.90;;;;;;5033536;28;20160;-87
2022/03/26 03:35:22;;;;;;;40.20;21.67;;;9.80;99.90;;;;;;5033672;28;20243;-82
2022/03/26 03:37:48;;;;;;;39.05;20.23;;;9.80;99.90;;;;;;5033609;28;20544;-81
2022/03/26 03:40:14;;;;;;;38.50;20.05;;;9.80;99.90;;;;;;5033369;28;20172;-86
2022/03/26 03:42:40;;;;;;;39.88;20.02;;;9.90;99.90;;;;;;5015676;28;20175;-86
2022/03/26 03:45:09;;;;;;;38.28;20.17;;;9.90;99.90;;;;;;5033961;28;20195;-85
2022/03/26 03:47:34;;;;;;;37.67;19.77;;;9.80;99.90;;;;;;5042007;28;20232;-78
2022/03/26 03:50:00;;;;;;;40.65;19.73;;;9.80;99.90;;;;;;5045448;28;20168;-82
2022/03/26 03:52:26;;;;;;;41.00;19.40;;;9.60;99.90;;;;;;5041493;28;20176;-87
2022/03/26 03:54:51;;;;;;;41.08;19.63;;;9.60;99.90;;;;;;5033075;28;20160;-84
2022/03/26 03:57:17;;;;;;;36.58;19.98;;;9.60;99.90;;;;;;5033117;28;20282;-82
2022/03/26 03:59:42;;;;;;;43.20;21.10;;;9.60;99.90;;;;;;5036442;28;20179;-86
2022/03/26 04:02:11;;;;;;;38.38;19.15;;;9.70;99.90;;;;;;5036810;28;20168;-87
2022/03/26 04:04:41;;;;;;;41.28;20.30;;;9.50;99.90;;;;;;5036662;28;20525;-87
2022/03/26 04:07:08;;;;;;;37.20;20.13;;;9.40;99.90;;;;;;5037009;28;20555;-84
2022/03/26 04:09:34;;;;;;;39.80;19.55;;;9.50;99.90;;;;;;5036784;28;20160;-85
2022/03/26 04:12:00;;;;;;;37.17;20.15;;;9.50;99.90;;;;;;5036435;28;20172;-85
2022/03/26 04:14:26;;;;;;;51.47;20.55;;;9.30;99.90;;;;;;5036508;28;20168;-87
2022/03/26 04:16:52;;;;;;;43.40;20.25;;;9.40;99.90;;;;;;5036293;28;20550;-84
2022/03/26 04:19:18;;;;;;;47.63;20.45;;;9.40;99.90;;;;;;5036355;28;20696;-87
2022/03/26 04:21:44;;;;;;;48.95;19.08;;;9.30;99.90;;;;;;5036399;28;20255;-87
2022/03/26 04:24:10;;;;;;;44.22;19.05;;;9.50;99.90;;;;;;5036497;28;20175;-87
2022/03/26 04:26:35;;;;;;;36.53;19.48;;;9.30;99.90;;;;;;5036047;28;20688;-87
2022/03/26 04:29:01;;;;;;;48.65;20.67;;;9.20;99.90;;;;;;5036126;28;20593;-84
2022/03/26 04:31:27;;;;;;;46.67;21.45;;;9.40;99.90;;;;;;5018480;28;20188;-77
2022/03/26 04:33:53;;;;;;;49.35;20.00;;;9.40;99.90;;;;;;5036063;28;20160;-82
2022/03/26 04:36:20;;;;;;;43.05;18.38;;;9.30;99.90;;;;;;5036479;28;20206;-87
2022/03/26 04:38:46;;;;;;;43.72;19.58;;;9.10;99.90;;;;;;5036694;28;20193;-87
2022/03/26 04:41:13;;;;;;;38.75;19.83;;;9.00;99.90;;;;;;5036091;28;20217;-87
2022/03/26 04:43:40;;;;;;;38.30;19.75;;;9.00;99.90;;;;;;5035910;28;20623;-87
2022/03/26 04:46:06;;;;;;;37.85;19.08;;;9.00;99.90;;;;;;5040583;28;20235;-85
2022/03/26 04:48:32;;;;;;;37.72;19.27;;;9.00;99.90;;;;;;5048398;28;20187;-87
2022/03/26 04:50:58;;;;;;;48.45;19.90;;;9.00;99.90;;;;;;5048201;28;20718;-78
2022/03/26 04:53:23;;;;;;;33.17;18.65;;;8.90;99.90;;;;;;5048384;28;20164;-88
2022/03/26 04:55:49;;;;;;;40.88;20.02;;;8.90;99.90;;;;;;5050808;28;20178;-87
2022/03/26 04:58:15;;;;;;;51.17;20.60;;;8.90;99.90;;;;;;5046023;28;20183;-87
2022/03/26 05:00:40;;;;;;;43.17;19.48;;;9.20;99.90;;;;;;5046362;28;20178;-84
2022/03/26 05:03:07;;;;;;;49.45;20.63;;;9.20;99.90;;;;;;5043734;28;20231;-79
2022/03/26 05:05:32;;;;;;;43.53;21.38;;;9.20;99.90;;;;;;5040886;28;20226;-87
2022/03/26 05:07:59;;;;;;;41.50;21.00;;;9.20;99.90;;;;;;5031648;28;20649;-82
2022/03/26 05:10:29;;;;;;;44.55;20.25;;;9.20;99.90;;;;;;5047668;28;20174;-78
2022/03/26 05:12:57;;;;;;;52.00;19.95;;;9.30;99.90;;;;;;5047797;28;20172;-80
2022/03/26 05:15:27;;;;;;;40.17;19.73;;;9.30;99.90;;;;;;5050513;28;20167;-83
2022/03/26 05:17:53;;;;;;;39.38;20.48;;;9.40;99.90;;;;;;5037387;28;20214;-83
2022/03/26 05:20:19;;;;;;;43.65;21.33;;;9.40;99.90;;;;;;5029006;28;20187;-85
2022/03/26 05:25:13;;;;;;;32.70;19.33;;;9.00;99.90;;;;;;5037637;28;20253;-78
2022/03/26 05:27:52;;;;;;;41.58;19.42;;;8.90;99.90;;;;;;5034913;28;20274;-80
2022/03/26 05:30:20;;;;;;;42.30;20.05;;;8.90;99.90;;;;;;5034679;28;20183;-87
2022/03/26 05:32:45;;;;;;;37.83;20.05;;;9.00;99.90;;;;;;5034527;28;20652;-88
2022/03/26 05:35:13;;;;;;;48.97;20.90;;;9.00;99.90;;;;;;5034535;28;20164;-88
2022/03/26 05:37:47;;;;;;;41.67;20.35;;;9.10;99.90;;;;;;5034829;28;20183;-87
2022/03/26 05:40:16;;;;;;;48.65;20.90;;;9.10;99.90;;;;;;5035101;28;20164;-86
2022/03/26 05:42:43;;;;;;;57.85;21.27;;;9.30;99.90;;;;;;5035226;28;20176;-78
2022/03/26 05:45:09;;;;;;;44.08;19.80;;;9.30;99.90;;;;;;5034719;28;20533;-85
2022/03/26 05:47:36;;;;;;;40.17;20.67;;;9.00;99.90;;;;;;5034747;28;20180;-85
2022/03/26 05:50:04;;;;;;;42.22;20.00;;;9.20;99.90;;;;;;5034484;28;20168;-78
2022/03/26 05:52:29;;;;;;;42.83;21.88;;;9.10;99.90;;;;;;5042457;28;20711;-79
2022/03/26 05:54:55;;;;;;;40.78;19.98;;;9.10;99.90;;;;;;5046022;28;20172;-85
2022/03/26 05:57:21;;;;;;;40.95;20.23;;;8.90;99.90;;;;;;5046578;28;20241;-79
2022/03/26 05:59:47;;;;;;;41.28;21.35;;;8.90;99.90;;;;;;5045771;28;20227;-83
2022/03/26 06:02:13;;;;;;;48.10;21.50;;;9.00;99.90;;;;;;5049235;28;20198;-85
2022/03/26 06:04:43;;;;;;;50.33;23.27;;;9.20;99.90;;;;;;5048858;28;20168;-83
2022/03/26 06:07:09;;;;;;;44.47;21.55;;;9.30;99.90;;;;;;5049416;28;20200;-85
2022/03/26 06:09:38;;;;;;;47.35;20.67;;;9.20;99.90;;;;;;5049685;28;20176;-84
2022/03/26 06:12:05;;;;;;;42.58;20.33;;;9.30;99.90;;;;;;5039923;28;20637;-84
2022/03/26 06:14:31;;;;;;;41.53;20.92;;;9.40;99.90;;;;;;5021206;28;20171;-77
2022/03/26 06:16:57;;;;;;;49.00;21.23;;;9.50;99.90;;;;;;5035044;28;20188;-80
2022/03/26 06:19:24;;;;;;;38.03;20.58;;;9.50;99.90;;;;;;5034302;28;20187;-82
2022/03/26 06:21:50;;;;;;;47.00;21.15;;;9.70;99.90;;;;;;5033654;28;20160;-83
2022/03/26 06:24:16;;;;;;;39.80;20.20;;;9.80;99.90;;;;;;5034094;28;20172;-85
2022/03/26 06:26:44;;;;;;;48.70;23.20;;;9.60;99.90;;;;;;5033593;28;20215;-86
2022/03/26 06:29:10;;;;;;;40.67;20.23;;;9.50;99.90;;;;;;5034041;28;20210;-85
2022/03/26 06:31:36;;;;;;;42.92;21.85;;;9.50;99.90;;;;;;5033896;28;20183;-85
2022/03/26 06:34:02;;;;;;;43.90;20.88;;;9.70;99.90;;;;;;5033812;28;20164;-76
2022/03/26 06:36:27;;;;;;;44.30;22.40;;;9.60;99.90;;;;;;5034308;28;20172;-77
2022/03/26 06:38:53;;;;;;;41.40;18.45;;;9.50;99.90;;;;;;5033600;28;20295;-79
2022/03/26 06:41:19;;;;;;;44.92;19.75;;;9.50;99.90;;;;;;5033980;28;20172;-83
2022/03/26 06:43:45;;;;;;;41.47;20.05;;;9.50;99.90;;;;;;5037902;28;20536;-82
2022/03/26 06:46:12;;;;;;;50.40;21.60;;;9.50;99.90;;;;;;5039973;28;20670;-81
2022/03/26 06:48:38;;;;;;;41.05;22.38;;;9.60;99.90;;;;;;5039095;28;20206;-87
2022/03/26 06:51:08;;;;;;;41.97;20.75;;;9.70;99.90;;;;;;5019698;28;20211;-84
2022/03/26 06:53:34;;;;;;;46.17;20.60;;;9.90;99.90;;;;;;5040052;28;20646;-87
2022/03/26 06:56:09;;;;;;;52.63;21.67;;;9.70;99.90;;;;;;5040915;28;20252;-86
2022/03/26 06:58:35;;;;;;;43.78;20.80;;;9.60;99.90;;;;;;5039038;28;20198;-83
2022/03/26 07:01:01;;;;;;;41.42;21.23;;;9.70;99.90;;;;;;5038275;28;20168;-87
2022/03/26 07:03:27;;;;;;;43.83;22.38;;;9.80;99.90;;;;;;5040931;28;20179;-87
2022/03/26 07:05:54;;;;;;;50.15;21.80;;;9.70;99.90;;;;;;5021124;28;20290;-87
2022/03/26 07:08:20;;;;;;;41.67;21.58;;;9.60;99.90;;;;;;5021368;28;20209;-87
2022/03/26 07:10:46;;;;;;;50.78;21.27;;;9.60;99.90;;;;;;5041956;28;20172;-81
2022/03/26 07:13:13;;;;;;;40.00;21.17;;;9.70;99.90;;;;;;5040365;28;20168;-80
2022/03/26 07:15:39;;;;;;;44.53;21.85;;;9.80;99.90;;;;;;5046044;28;20167;-80
2022/03/26 07:18:05;;;;;;;50.08;23.65;;;9.80;99.90;;;;;;5032853;28;20187;-83
2022/03/26 07:20:30;;;;;;;51.45;24.10;;;9.80;99.90;;;;;;5049529;28;20162;-88
2022/03/26 07:22:56;;;;;;;41.85;22.05;;;9.70;99.90;;;;;;5047339;28;20194;-83
2022/03/26 07:25:21;;;;;;;43.92;21.83;;;9.90;99.90;;;;;;5035186;28;20203;-78
2022/03/26 07:27:47;;;;;;;46.08;23.83;;;10.10;99.90;;;;;;5035492;28;20251;-78
2022/03/26 07:30:13;;;;;;;42.97;22.17;;;10.10;99.90;;;;;;5033828;28;20180;-88
2022/03/26 07:32:39;;;;;;;47.25;24.55;;;10.20;99.90;;;;;;5033368;28;20206;-83
2022/03/26 07:35:05;;;;;;;50.15;25.23;;;10.30;99.90;;;;;;5036814;28;20168;-78
2022/03/26 07:37:31;;;;;;;54.92;25.75;;;10.30;99.90;;;;;;5036868;28;20356;-81
2022/03/26 07:39:58;;;;;;;58.20;24.90;;;10.20;99.90;;;;;;5036800;28;20263;-87
2022/03/26 07:42:23;;;;;;;45.08;23.70;;;10.20;99.90;;;;;;5036825;28;20621;-78
2022/03/26 07:44:49;;;;;;;56.30;25.65;;;10.10;99.90;;;;;;5037044;28;20186;-83
2022/03/26 07:47:14;;;;;;;53.42;26.98;;;10.30;99.90;;;;;;5037016;28;20234;-85
2022/03/26 07:49:40;;;;;;;44.72;23.50;;;10.30;99.90;;;;;;5019046;28;20199;-85
2022/03/26 07:52:06;;;;;;;47.97;25.65;;;10.40;99.90;;;;;;5037598;28;20168;-81
2022/03/26 07:54:31;;;;;;;56.10;24.75;;;10.40;99.90;;;;;;5049626;28;20175;-80
2022/03/26 07:56:57;;;;;;;53.78;25.77;;;10.40;99.90;;;;;;5029715;28;20172;-77
2022/03/26 07:59:23;;;;;;;56.45;24.55;;;10.50;99.90;;;;;;5037582;28;20629;-81
2022/03/26 08:01:48;;;;;;;49.17;25.80;;;10.60;99.90;;;;;;5052661;28;20167;-79
2022/03/26 08:04:14;;;;;;;49.33;23.83;;;10.70;99.90;;;;;;5042575;28;20210;-84
2022/03/26 08:06:40;;;;;;;51.70;25.45;;;10.80;99.90;;;;;;5050211;28;20198;-87
2022/03/26 08:09:06;;;;;;;44.60;25.38;;;10.90;99.90;;;;;;5041759;28;20164;-88
2022/03/26 08:11:32;;;;;;;51.45;23.98;;;11.10;99.90;;;;;;5045002;28;20168;-84
2022/03/26 08:13:57;;;;;;;49.88;24.30;;;11.10;99.90;;;;;;5046465;28;20172;-81
2022/03/26 08:16:23;;;;;;;57.55;25.80;;;11.10;99.90;;;;;;5037215;28;20222;-84
2022/03/26 08:18:49;;;;;;;57.67;24.65;;;11.00;99.90;;;;;;5046575;28;20178;-85
2022/03/26 08:21:15;;;;;;;58.80;25.00;;;11.00;99.90;;;;;;5048526;28;20171;-82
2022/03/26 08:23:41;;;;;;;53.15;24.63;;;11.20;99.90;;;;;;5053277;28;20171;-81
2022/03/26 08:26:19;;;;;;;53.05;23.13;;;11.20;99.90;;;;;;5050821;28;20220;-84
2022/03/26 08:28:45;;;;;;;61.75;24.15;;;11.30;99.90;;;;;;5018845;28;20167;-81
2022/03/26 08:31:13;;;;;;;49.38;25.73;;;11.30;99.90;;;;;;5036948;28;20188;-86
2022/03/26 08:33:42;;;;;;;46.75;24.70;;;11.40;99.90;;;;;;5035780;28;20168;-81
2022/03/26 08:36:09;;;;;;;43.70;23.33;;;11.40;99.90;;;;;;5035832;28;20222;-78
2022/03/26 08:38:35;;;;;;;53.33;24.88;;;11.50;99.90;;;;;;5036087;28;20260;-80
2022/03/26 08:41:01;;;;;;;47.50;25.08;;;11.70;99.90;;;;;;5035979;28;20279;-83
2022/03/26 08:43:27;;;;;;;54.95;24.20;;;11.80;99.90;;;;;;5035048;28;20165;-85
2022/03/26 08:45:52;;;;;;;43.88;23.17;;;12.00;99.90;;;;;;5035917;28;20235;-88
2022/03/26 08:48:18;;;;;;;52.65;25.80;;;12.40;99.90;;;;;;5036031;28;20586;-78
2022/03/26 08:50:44;;;;;;;44.58;24.35;;;12.50;99.90;;;;;;5035497;28;20533;-80
2022/03/26 08:53:10;;;;;;;46.85;24.42;;;12.50;99.90;;;;;;5036174;28;20394;-84
2022/03/26 08:55:36;;;;;;;58.72;25.85;;;12.40;99.90;;;;;;5036009;28;20228;-87
2022/03/26 08:58:02;;;;;;;53.17;26.25;;;12.30;99.90;;;;;;5035941;28;20200;-82
2022/03/26 09:00:28;;;;;;;51.05;25.27;;;12.40;99.90;;;;;;5035802;28;20195;-79
2022/03/26 09:02:54;;;;;;;54.38;24.92;;;12.60;99.90;;;;;;5035443;28;20168;-78
2022/03/26 09:05:20;;;;;;;53.28;24.98;;;12.70;99.90;;;;;;5036102;28;20206;-77
2022/03/26 09:07:46;;;;;;;53.50;25.27;;;12.70;99.90;;;;;;5035357;28;20546;-83
2022/03/26 09:10:11;;;;;;;52.65;22.90;;;12.90;99.90;;;;;;5035301;28;20246;-85
2022/03/26 09:12:38;;;;;;;47.28;23.65;;;12.90;99.90;;;;;;5035156;28;20194;-78
2022/03/26 09:15:06;;;;;;;48.78;26.27;;;13.00;99.90;;;;;;5035264;28;20171;-77
2022/03/26 09:17:32;;;;;;;47.70;24.90;;;13.20;99.90;;;;;;5035295;28;20695;-86
2022/03/26 09:19:58;;;;;;;54.67;25.60;;;13.30;99.90;;;;;;5035987;28;20255;-82
2022/03/26 09:22:24;;;;;;;46.83;25.00;;;13.30;99.90;;;;;;5035718;28;20246;-84
2022/03/26 09:24:50;;;;;;;54.03;25.75;;;13.40;99.90;;;;;;5035242;28;20271;-86
2022/03/26 09:27:16;;;;;;;53.92;25.70;;;13.50;99.90;;;;;;5034252;28;20212;-85
2022/03/26 09:29:41;;;;;;;52.35;26.45;;;13.70;99.90;;;;;;5017200;28;20587;-85
2022/03/26 09:32:07;;;;;;;49.92;24.85;;;13.70;99.90;;;;;;5035261;28;20170;-86
2022/03/26 09:34:33;;;;;;;48.90;24.08;;;13.70;99.90;;;;;;5034652;28;20175;-85
2022/03/26 09:36:59;;;;;;;51.78;25.45;;;13.90;99.90;;;;;;5034681;28;20187;-77
2022/03/26 09:39:24;;;;;;;57.90;26.95;;;13.90;99.90;;;;;;5034688;28;20225;-86
2022/03/26 09:41:51;;;;;;;51.33;23.75;;;14.00;99.90;;;;;;5034776;28;20172;-84
2022/03/26 09:44:17;;;;;;;55.42;26.30;;;14.10;99.90;;;;;;5017069;28;20167;-80
2022/03/26 09:46:42;;;;;;;49.72;23.65;;;14.10;99.90;;;;;;5034754;28;20223;-77
2022/03/26 09:49:10;;;;;;;54.38;25.23;;;14.20;99.90;;;;;;5035113;28;20556;-82
2022/03/26 09:51:35;;;;;;;50.53;24.83;;;14.40;99.90;;;;;;5034443;28;20533;-77
2022/03/26 09:54:01;;;;;;;48.90;23.20;;;14.40;99.90;;;;;;5034348;28;20222;-77
2022/03/26 09:56:29;;;;;;;47.85;24.50;;;14.50;99.90;;;;;;5033495;28;20508;-82
2022/03/26 09:58:56;;;;;;;50.60;25.88;;;14.70;99.90;;;;;;5034860;28;20179;-83
2022/03/26 10:01:22;;;;;;;47.40;24.60;;;14.70;99.90;;;;;;5034839;28;20182;-83
2022/03/26 10:04:14;;;;;;;44.90;23.85;;;14.70;99.90;;;;;;5034557;28;20232;-85
2022/03/26 10:06:54;;;;;;;54.90;25.65;;;14.90;99.90;;;;;;5034374;28;20208;-86
2022/03/26 10:09:35;;;;;;;49.58;24.23;;;15.00;99.90;;;;;;5034297;28;20290;-85
2022/03/26 10:12:01;;;;;;;55.70;25.80;;;15.10;99.90;;;;;;5034347;28;20207;-79
2022/03/26 10:14:57;;;;;;;43.22;23.58;;;15.20;99.90;;;;;;5034138;28;20195;-86
2022/03/26 10:17:24;;;;;;;49.92;25.52;;;15.50;99.90;;;;;;5027930;28;20215;-85
2022/03/26 10:20:01;;;;;;;54.65;24.75;;;15.60;99.90;;;;;;5016615;28;20164;-86
2022/03/26 10:22:48;;;;;;;44.42;21.85;;;15.80;99.90;;;;;;5000379;28;20178;-86
2022/03/26 10:25:22;;;;;;;50.70;23.45;;;15.90;99.90;;;;;;5033939;28;20191;-85
2022/03/26 10:27:55;;;;;;;47.42;23.67;;;15.80;99.90;;;;;;5034217;28;20286;-77
2022/03/26 10:33:22;;;;;;;42.20;21.70;;;16.00;99.90;;;;;;5034321;28;20175;-87
2022/03/26 10:35:58;;;;;;;42.63;21.75;;;16.00;99.90;;;;;;5033960;28;20258;-82
2022/03/26 10:38:38;;;;;;;51.25;22.55;;;16.00;99.90;;;;;;5033503;28;20271;-77
2022/03/26 10:41:07;;;;;;;53.55;23.00;;;15.90;99.90;;;;;;5034313;28;20207;-85
2022/03/26 10:43:34;;;;;;;43.33;22.13;;;15.90;99.90;;;;;;5033693;28;20170;-77
2022/03/26 10:46:01;;;;;;;49.08;23.60;;;16.10;99.90;;;;;;5034858;28;20560;-87
2022/03/26 10:48:32;;;;;;;44.17;22.58;;;16.00;99.90;;;;;;5045391;28;20183;-77
2022/03/26 10:51:06;;;;;;;42.92;23.05;;;15.90;99.90;;;;;;5044137;28;20250;-77
2022/03/26 10:53:37;;;;;;;46.55;22.33;;;16.00;99.90;;;;;;5015705;28;20176;-78
2022/03/26 10:56:04;;;;;;;53.92;21.42;;;16.30;99.90;;;;;;5033340;28;20225;-78
2022/03/26 10:58:31;;;;;;;42.10;21.20;;;16.50;99.90;;;;;;5033664;28;20180;-78
2022/03/26 11:00:57;;;;;;;48.28;22.00;;;16.60;99.90;;;;;;5033688;28;20164;-85
2022/03/26 11:03:23;;;;;;;50.35;24.02;;;16.60;99.90;;;;;;5033413;28;20512;-87
2022/03/26 11:05:54;;;;;;;40.45;22.50;;;16.60;99.90;;;;;;5033150;28;20199;-78
2022/03/26 11:08:21;;;;;;;55.42;22.73;;;16.70;99.90;;;;;;5033669;28;20187;-88
2022/03/26 11:10:50;;;;;;;44.28;21.10;;;16.70;99.90;;;;;;5033802;28;20171;-87
2022/03/26 11:13:18;;;;;;;46.90;22.65;;;16.80;99.90;;;;;;5033777;28;20168;-78
2022/03/26 11:15:49;;;;;;;54.88;23.38;;;16.70;99.90;;;;;;5033537;28;20171;-85
2022/03/26 11:18:25;;;;;;;45.88;21.65;;;16.90;99.90;;;;;;5035066;28;20194;-78
2022/03/26 11:20:57;;;;;;;40.55;21.52;;;16.70;99.90;;;;;;5033233;28;20182;-88
2022/03/26 11:23:59;;;;;;;56.55;23.98;;;16.70;99.90;;;;;;5034091;28;20179;-87
2022/03/26 11:26:59;;;;;;;41.75;21.83;;;16.80;99.90;;;;;;5033763;28;20615;-79
2022/03/26 11:29:42;;;;;;;49.28;22.95;;;17.00;99.90;;;;;;5033631;28;20179;-81
2022/03/26 11:32:29;;;;;;;47.30;21.73;;;17.00;99.90;;;;;;5034009;28;20199;-79
2022/03/26 11:35:00;;;;;;;53.35;22.65;;;17.10;99.90;;;;;;5033679;28;20229;-87
2022/03/26 11:37:26;;;;;;;56.42;24.77;;;17.00;99.90;;;;;;5034144;28;20198;-83
2022/03/26 11:39:53;;;;;;;42.50;21.83;;;17.00;99.90;;;;;;5035648;28;20175;-88
2022/03/26 11:42:31;;;;;;;45.55;21.45;;;17.10;99.90;;;;;;5048039;28;20156;-82
2022/03/26 11:51:17;;;;;;;51.67;20.80;;;17.40;99.90;;;;;;5035628;28;20245;-78
2022/03/26 11:53:44;;;;;;;53.15;20.48;;;17.40;99.90;;;;;;5036902;28;20179;-77
2022/03/26 11:56:23;;;;;;;49.30;21.77;;;17.30;99.80;;;;;;5033093;28;20549;-77
2022/03/26 11:59:05;;;;;;;50.92;22.52;;;17.30;99.90;;;;;;5032425;28;20167;-78
2022/03/26 12:01:45;;;;;;;45.40;21.45;;;17.40;99.90;;;;;;5033144;28;20174;-78
2022/03/26 12:04:25;;;;;;;52.67;22.40;;;17.40;99.90;;;;;;5032240;28;20172;-86
2022/03/26 12:06:53;;;;;;;43.53;21.98;;;17.40;99.90;;;;;;5032237;28;20230;-81
2022/03/26 12:09:32;;;;;;;49.33;22.67;;;17.50;99.80;;;;;;5032773;28;20203;-84
2022/03/26 12:12:16;;;;;;;43.92;20.33;;;17.50;99.90;;;;;;5032362;28;20897;-77
2022/03/26 12:15:04;;;;;;;36.38;20.58;;;17.70;99.70;;;;;;5032392;28;20214;-87
2022/03/26 12:18:06;;;;;;;53.88;21.27;;;17.60;99.40;;;;;;5032577;28;20180;-86
2022/03/26 12:20:39;;;;;;;46.22;20.05;;;17.70;98.90;;;;;;5035712;28;20233;-77
2022/03/26 12:23:15;;;;;;;38.25;20.60;;;17.70;98.70;;;;;;5036355;28;20182;-79
2022/03/26 12:25:46;;;;;;;46.20;19.90;;;17.80;99.00;;;;;;5035966;28;20218;-82
2022/03/26 12:28:14;;;;;;;42.13;19.02;;;17.80;98.50;;;;;;5035773;28;20566;-79
2022/03/26 12:30:44;;;;;;;42.45;20.27;;;17.80;98.70;;;;;;5036694;28;20180;-81
2022/03/26 12:33:12;;;;;;;44.97;19.33;;;17.80;98.90;;;;;;5036008;28;20187;-85
2022/03/26 12:35:38;;;;;;;44.42;19.95;;;17.80;98.10;;;;;;5035888;28;20194;-83
2022/03/26 12:38:06;;;;;;;44.28;19.38;;;17.80;97.80;;;;;;5035753;28;20184;-77
2022/03/26 12:40:33;;;;;;;46.70;19.13;;;17.70;97.80;;;;;;5036086;28;20302;-82
2022/03/26 12:42:58;;;;;;;51.20;20.63;;;17.80;98.10;;;;;;5018512;28;20258;-78
2022/03/26 12:45:24;;;;;;;54.22;20.40;;;17.80;98.20;;;;;;5035468;28;20278;-84